sensor_id;sensor_type;location;lat;lon;timestamp;P1;durP1;ratioP1;P2;durP2;ratioP2
21000;SDS011;10658;50.920;12.238;2022-12-05T00:02:57;304.02;;;56.70;;
21000;SDS011;10658;50.920;12.238;2022-12-05T00:07:02;185.32;;;42.70;;
21000;SDS011;10658;50.920;12.238;2022-12-05T00:11:06;75.15;;;32.03;;
21000;SDS011;10658;50.920;12.238;2022-12-05T00:15:11;75.63;;;29.80;;
21000;SDS011;10658;50.920;12.238;2022-12-05T00:19:14;238.35;;;45.80;;
21000;SDS011;10658;50.920;12.238;2022-12-05T00:23:15;94.60;;;34.55;;
21000;SDS011;10658;50.920;12.238;2022-12-05T00:27:16;285.20;;;51.85;;
21000;SDS011;10658;50.920;12.238;2022-12-05T00:31:19;139.95;;;34.88;;
21000;SDS011;10658;50.920;12.238;2022-12-05T00:35:21;272.63;;;46.85;;
21000;SDS011;10658;50.920;12.238;2022-12-05T00:39:23;81.72;;;29.83;;
21000;SDS011;10658;50.920;12.238;2022-12-05T00:43:23;322.38;;;52.10;;
21000;SDS011;10658;50.920;12.238;2022-12-05T00:47:24;122.38;;;32.67;;
21000;SDS011;10658;50.920;12.238;2022-12-05T00:51:29;198.93;;;45.88;;
21000;SDS011;10658;50.920;12.238;2022-12-05T00:55:35;67.95;;;28.65;;
21000;SDS011;10658;50.920;12.238;2022-12-05T00:59:36;115.80;;;31.23;;
21000;SDS011;10658;50.920;12.238;2022-12-05T01:03:37;66.75;;;30.23;;
21000;SDS011;10658;50.920;12.238;2022-12-05T01:07:39;67.57;;;26.88;;
21000;SDS011;10658;50.920;12.238;2022-12-05T01:11:40;160.32;;;36.47;;
21000;SDS011;10658;50.920;12.238;2022-12-05T01:15:42;130.43;;;34.78;;
21000;SDS011;10658;50.920;12.238;2022-12-05T01:19:43;132.77;;;33.78;;
21000;SDS011;10658;50.920;12.238;2022-12-05T01:23:45;92.95;;;31.38;;
21000;SDS011;10658;50.920;12.238;2022-12-05T01:27:47;194.57;;;41.42;;
21000;SDS011;10658;50.920;12.238;2022-12-05T01:31:48;89.05;;;29.35;;
21000;SDS011;10658;50.920;12.238;2022-12-05T01:35:49;237.40;;;45.08;;
21000;SDS011;10658;50.920;12.238;2022-12-05T01:39:50;159.27;;;39.22;;
21000;SDS011;10658;50.920;12.238;2022-12-05T01:44:04;84.78;;;29.35;;
21000;SDS011;10658;50.920;12.238;2022-12-05T01:48:25;262.02;;;48.65;;
21000;SDS011;10658;50.920;12.238;2022-12-05T01:52:31;144.35;;;36.30;;
21000;SDS011;10658;50.920;12.238;2022-12-05T01:56:33;154.57;;;36.53;;
21000;SDS011;10658;50.920;12.238;2022-12-05T02:00:36;143.65;;;34.75;;
21000;SDS011;10658;50.920;12.238;2022-12-05T02:04:44;116.18;;;34.45;;
21000;SDS011;10658;50.920;12.238;2022-12-05T02:08:59;112.70;;;31.75;;
21000;SDS011;10658;50.920;12.238;2022-12-05T02:17:37;109.75;;;31.60;;
21000;SDS011;10658;50.920;12.238;2022-12-05T02:26:11;95.20;;;29.02;;
21000;SDS011;10658;50.920;12.238;2022-12-05T02:30:23;88.32;;;27.70;;
21000;SDS011;10658;50.920;12.238;2022-12-05T02:34:33;56.88;;;25.23;;
21000;SDS011;10658;50.920;12.238;2022-12-05T02:38:54;60.28;;;23.77;;
21000;SDS011;10658;50.920;12.238;2022-12-05T02:47:58;62.20;;;25.25;;
21000;SDS011;10658;50.920;12.238;2022-12-05T02:52:02;54.08;;;23.33;;
21000;SDS011;10658;50.920;12.238;2022-12-05T02:56:08;54.13;;;21.85;;
21000;SDS011;10658;50.920;12.238;2022-12-05T03:00:10;55.13;;;23.00;;
21000;SDS011;10658;50.920;12.238;2022-12-05T03:04:12;50.95;;;22.48;;
21000;SDS011;10658;50.920;12.238;2022-12-05T03:08:15;46.00;;;21.42;;
21000;SDS011;10658;50.920;12.238;2022-12-05T03:12:22;44.95;;;19.85;;
21000;SDS011;10658;50.920;12.238;2022-12-05T03:16:40;43.85;;;19.73;;
21000;SDS011;10658;50.920;12.238;2022-12-05T03:21:07;43.22;;;19.15;;
21000;SDS011;10658;50.920;12.238;2022-12-05T03:25:40;51.40;;;20.35;;
21000;SDS011;10658;50.920;12.238;2022-12-05T03:30:05;40.90;;;17.15;;
21000;SDS011;10658;50.920;12.238;2022-12-05T03:34:11;56.28;;;18.70;;
21000;SDS011;10658;50.920;12.238;2022-12-05T03:42:28;39.38;;;17.27;;
21000;SDS011;10658;50.920;12.238;2022-12-05T03:46:38;40.45;;;18.00;;
21000;SDS011;10658;50.920;12.238;2022-12-05T03:50:44;48.03;;;18.13;;
21000;SDS011;10658;50.920;12.238;2022-12-05T03:54:50;37.25;;;17.38;;
21000;SDS011;10658;50.920;12.238;2022-12-05T03:58:56;46.92;;;18.17;;
21000;SDS011;10658;50.920;12.238;2022-12-05T04:03:04;53.42;;;19.55;;
21000;SDS011;10658;50.920;12.238;2022-12-05T04:07:12;40.10;;;17.95;;
21000;SDS011;10658;50.920;12.238;2022-12-05T04:11:18;38.38;;;17.38;;
21000;SDS011;10658;50.920;12.238;2022-12-05T04:15:27;56.95;;;19.90;;
21000;SDS011;10658;50.920;12.238;2022-12-05T04:19:58;46.17;;;19.80;;
21000;SDS011;10658;50.920;12.238;2022-12-05T04:24:29;38.75;;;19.35;;
21000;SDS011;10658;50.920;12.238;2022-12-05T04:32:57;37.20;;;18.20;;
21000;SDS011;10658;50.920;12.238;2022-12-05T04:37:11;40.78;;;19.40;;
21000;SDS011;10658;50.920;12.238;2022-12-05T04:41:27;34.75;;;19.67;;
21000;SDS011;10658;50.920;12.238;2022-12-05T04:45:40;39.90;;;19.02;;
21000;SDS011;10658;50.920;12.238;2022-12-05T04:49:42;33.30;;;17.15;;
21000;SDS011;10658;50.920;12.238;2022-12-05T04:53:47;42.42;;;18.75;;
21000;SDS011;10658;50.920;12.238;2022-12-05T05:02:05;38.97;;;18.13;;
21000;SDS011;10658;50.920;12.238;2022-12-05T05:06:11;37.92;;;17.70;;
21000;SDS011;10658;50.920;12.238;2022-12-05T05:10:14;35.65;;;17.48;;
21000;SDS011;10658;50.920;12.238;2022-12-05T05:14:21;32.03;;;15.95;;
21000;SDS011;10658;50.920;12.238;2022-12-05T05:18:22;36.65;;;17.05;;
21000;SDS011;10658;50.920;12.238;2022-12-05T05:22:24;35.08;;;16.95;;
21000;SDS011;10658;50.920;12.238;2022-12-05T05:26:26;39.13;;;17.60;;
21000;SDS011;10658;50.920;12.238;2022-12-05T05:30:29;36.70;;;17.08;;
21000;SDS011;10658;50.920;12.238;2022-12-05T05:34:30;29.92;;;16.33;;
21000;SDS011;10658;50.920;12.238;2022-12-05T05:38:38;32.10;;;15.32;;
21000;SDS011;10658;50.920;12.238;2022-12-05T05:42:44;29.52;;;16.38;;
21000;SDS011;10658;50.920;12.238;2022-12-05T05:46:48;40.28;;;17.48;;
21000;SDS011;10658;50.920;12.238;2022-12-05T05:50:49;32.92;;;15.80;;
21000;SDS011;10658;50.920;12.238;2022-12-05T05:54:50;36.00;;;18.30;;
21000;SDS011;10658;50.920;12.238;2022-12-05T05:58:55;38.03;;;17.52;;
21000;SDS011;10658;50.920;12.238;2022-12-05T06:03:01;33.67;;;16.27;;
21000;SDS011;10658;50.920;12.238;2022-12-05T06:07:02;35.75;;;16.73;;
21000;SDS011;10658;50.920;12.238;2022-12-05T06:11:04;38.90;;;17.33;;
21000;SDS011;10658;50.920;12.238;2022-12-05T06:15:07;35.80;;;15.80;;
21000;SDS011;10658;50.920;12.238;2022-12-05T06:19:08;39.92;;;15.95;;
21000;SDS011;10658;50.920;12.238;2022-12-05T06:23:09;41.38;;;17.90;;
21000;SDS011;10658;50.920;12.238;2022-12-05T06:27:10;42.78;;;17.70;;
21000;SDS011;10658;50.920;12.238;2022-12-05T06:31:13;42.08;;;18.80;;
21000;SDS011;10658;50.920;12.238;2022-12-05T06:35:19;36.10;;;18.42;;
21000;SDS011;10658;50.920;12.238;2022-12-05T06:39:20;33.10;;;15.65;;
21000;SDS011;10658;50.920;12.238;2022-12-05T06:43:21;28.60;;;15.77;;
21000;SDS011;10658;50.920;12.238;2022-12-05T06:47:23;33.88;;;15.45;;
21000;SDS011;10658;50.920;12.238;2022-12-05T06:51:24;33.67;;;17.63;;
21000;SDS011;10658;50.920;12.238;2022-12-05T06:55:26;38.22;;;16.23;;
21000;SDS011;10658;50.920;12.238;2022-12-05T06:59:28;39.13;;;16.80;;
21000;SDS011;10658;50.920;12.238;2022-12-05T07:03:29;40.00;;;18.45;;
21000;SDS011;10658;50.920;12.238;2022-12-05T07:07:30;38.75;;;17.75;;
21000;SDS011;10658;50.920;12.238;2022-12-05T07:11:31;30.05;;;15.77;;
21000;SDS011;10658;50.920;12.238;2022-12-05T07:15:34;36.40;;;17.50;;
21000;SDS011;10658;50.920;12.238;2022-12-05T07:19:37;35.90;;;16.10;;
21000;SDS011;10658;50.920;12.238;2022-12-05T07:23:39;36.10;;;16.20;;
21000;SDS011;10658;50.920;12.238;2022-12-05T07:27:45;28.65;;;16.00;;
21000;SDS011;10658;50.920;12.238;2022-12-05T07:31:47;33.60;;;16.73;;
21000;SDS011;10658;50.920;12.238;2022-12-05T07:35:48;32.92;;;16.75;;
21000;SDS011;10658;50.920;12.238;2022-12-05T07:39:50;31.30;;;17.23;;
21000;SDS011;10658;50.920;12.238;2022-12-05T07:43:53;37.63;;;17.42;;
21000;SDS011;10658;50.920;12.238;2022-12-05T07:47:55;35.80;;;15.80;;
21000;SDS011;10658;50.920;12.238;2022-12-05T07:51:56;37.63;;;16.40;;
21000;SDS011;10658;50.920;12.238;2022-12-05T07:55:59;33.92;;;16.73;;
21000;SDS011;10658;50.920;12.238;2022-12-05T08:00:02;38.65;;;17.67;;
21000;SDS011;10658;50.920;12.238;2022-12-05T08:04:12;32.60;;;16.30;;
21000;SDS011;10658;50.920;12.238;2022-12-05T08:08:14;32.30;;;15.68;;
21000;SDS011;10658;50.920;12.238;2022-12-05T08:12:15;33.30;;;16.83;;
21000;SDS011;10658;50.920;12.238;2022-12-05T08:16:19;28.33;;;15.98;;
21000;SDS011;10658;50.920;12.238;2022-12-05T08:20:21;35.47;;;16.50;;
21000;SDS011;10658;50.920;12.238;2022-12-05T08:24:23;36.63;;;17.33;;
21000;SDS011;10658;50.920;12.238;2022-12-05T08:28:25;33.58;;;16.55;;
21000;SDS011;10658;50.920;12.238;2022-12-05T08:32:26;24.58;;;14.10;;
21000;SDS011;10658;50.920;12.238;2022-12-05T08:36:28;29.67;;;14.75;;
21000;SDS011;10658;50.920;12.238;2022-12-05T08:40:29;30.10;;;16.98;;
21000;SDS011;10658;50.920;12.238;2022-12-05T08:44:32;32.97;;;17.00;;
21000;SDS011;10658;50.920;12.238;2022-12-05T08:48:34;32.70;;;16.73;;
21000;SDS011;10658;50.920;12.238;2022-12-05T08:52:37;37.00;;;15.43;;
21000;SDS011;10658;50.920;12.238;2022-12-05T08:56:38;27.48;;;14.07;;
21000;SDS011;10658;50.920;12.238;2022-12-05T09:00:40;31.30;;;15.85;;
21000;SDS011;10658;50.920;12.238;2022-12-05T09:04:42;36.15;;;16.60;;
21000;SDS011;10658;50.920;12.238;2022-12-05T09:08:43;33.85;;;19.15;;
21000;SDS011;10658;50.920;12.238;2022-12-05T09:12:44;38.53;;;19.02;;
21000;SDS011;10658;50.920;12.238;2022-12-05T09:16:45;36.63;;;20.55;;
21000;SDS011;10658;50.920;12.238;2022-12-05T09:20:47;32.08;;;17.15;;
21000;SDS011;10658;50.920;12.238;2022-12-05T09:25:08;29.45;;;16.33;;
21000;SDS011;10658;50.920;12.238;2022-12-05T09:29:11;26.65;;;14.30;;
21000;SDS011;10658;50.920;12.238;2022-12-05T09:33:12;25.45;;;14.82;;
21000;SDS011;10658;50.920;12.238;2022-12-05T09:37:14;28.33;;;16.70;;
21000;SDS011;10658;50.920;12.238;2022-12-05T09:41:33;38.65;;;22.13;;
21000;SDS011;10658;50.920;12.238;2022-12-05T09:46:13;37.17;;;19.60;;
21000;SDS011;10658;50.920;12.238;2022-12-05T09:54:39;26.02;;;14.38;;
21000;SDS011;10658;50.920;12.238;2022-12-05T09:58:42;26.70;;;15.60;;
21000;SDS011;10658;50.920;12.238;2022-12-05T10:07:11;23.00;;;13.73;;
21000;SDS011;10658;50.920;12.238;2022-12-05T10:15:28;24.10;;;13.85;;
21000;SDS011;10658;50.920;12.238;2022-12-05T10:19:31;28.25;;;13.13;;
21000;SDS011;10658;50.920;12.238;2022-12-05T10:23:55;25.27;;;14.65;;
21000;SDS011;10658;50.920;12.238;2022-12-05T10:28:00;28.63;;;15.60;;
21000;SDS011;10658;50.920;12.238;2022-12-05T10:32:12;30.45;;;16.58;;
21000;SDS011;10658;50.920;12.238;2022-12-05T10:36:23;29.02;;;15.35;;
21000;SDS011;10658;50.920;12.238;2022-12-05T10:40:26;22.95;;;13.20;;
21000;SDS011;10658;50.920;12.238;2022-12-05T10:44:35;25.35;;;13.10;;
21000;SDS011;10658;50.920;12.238;2022-12-05T10:48:38;21.83;;;12.93;;
21000;SDS011;10658;50.920;12.238;2022-12-05T10:52:41;23.80;;;13.18;;
21000;SDS011;10658;50.920;12.238;2022-12-05T10:56:43;26.55;;;12.45;;
21000;SDS011;10658;50.920;12.238;2022-12-05T11:00:46;25.08;;;13.52;;
21000;SDS011;10658;50.920;12.238;2022-12-05T11:04:51;22.75;;;12.40;;
21000;SDS011;10658;50.920;12.238;2022-12-05T11:08:54;22.40;;;11.93;;
21000;SDS011;10658;50.920;12.238;2022-12-05T11:12:58;19.02;;;12.02;;
21000;SDS011;10658;50.920;12.238;2022-12-05T11:17:01;20.50;;;11.00;;
21000;SDS011;10658;50.920;12.238;2022-12-05T11:21:07;18.63;;;11.68;;
21000;SDS011;10658;50.920;12.238;2022-12-05T11:25:30;22.52;;;11.50;;
21000;SDS011;10658;50.920;12.238;2022-12-05T11:29:34;13.98;;;9.50;;
21000;SDS011;10658;50.920;12.238;2022-12-05T11:33:37;19.40;;;10.73;;
21000;SDS011;10658;50.920;12.238;2022-12-05T11:42:10;18.83;;;11.57;;
21000;SDS011;10658;50.920;12.238;2022-12-05T11:46:40;18.45;;;10.20;;
21000;SDS011;10658;50.920;12.238;2022-12-05T11:55:15;17.52;;;11.07;;
21000;SDS011;10658;50.920;12.238;2022-12-05T12:08:26;22.20;;;11.57;;
21000;SDS011;10658;50.920;12.238;2022-12-05T12:30:11;15.43;;;9.35;;
21000;SDS011;10658;50.920;12.238;2022-12-05T12:51:23;12.85;;;8.52;;
21000;SDS011;10658;50.920;12.238;2022-12-05T12:55:43;14.75;;;8.02;;
21000;SDS011;10658;50.920;12.238;2022-12-05T13:04:23;14.27;;;8.50;;
21000;SDS011;10658;50.920;12.238;2022-12-05T13:08:42;16.00;;;8.52;;
21000;SDS011;10658;50.920;12.238;2022-12-05T13:12:57;13.13;;;9.07;;
21000;SDS011;10658;50.920;12.238;2022-12-05T13:16:59;14.45;;;8.63;;
21000;SDS011;10658;50.920;12.238;2022-12-05T13:21:04;19.27;;;10.50;;
21000;SDS011;10658;50.920;12.238;2022-12-05T13:25:14;15.85;;;10.10;;
21000;SDS011;10658;50.920;12.238;2022-12-05T13:29:39;17.35;;;9.30;;
21000;SDS011;10658;50.920;12.238;2022-12-05T13:33:47;12.18;;;7.78;;
21000;SDS011;10658;50.920;12.238;2022-12-05T13:37:49;13.00;;;8.75;;
21000;SDS011;10658;50.920;12.238;2022-12-05T13:42:21;13.60;;;9.52;;
21000;SDS011;10658;50.920;12.238;2022-12-05T13:46:28;18.15;;;10.75;;
21000;SDS011;10658;50.920;12.238;2022-12-05T13:54:40;14.30;;;10.23;;
21000;SDS011;10658;50.920;12.238;2022-12-05T14:02:51;14.90;;;10.00;;
21000;SDS011;10658;50.920;12.238;2022-12-05T14:06:55;21.08;;;12.95;;
21000;SDS011;10658;50.920;12.238;2022-12-05T14:15:00;22.52;;;12.48;;
21000;SDS011;10658;50.920;12.238;2022-12-05T14:36:34;12.75;;;7.70;;
21000;SDS011;10658;50.920;12.238;2022-12-05T14:40:38;21.15;;;9.23;;
21000;SDS011;10658;50.920;12.238;2022-12-05T14:44:45;14.43;;;9.02;;
21000;SDS011;10658;50.920;12.238;2022-12-05T14:48:51;16.08;;;9.18;;
21000;SDS011;10658;50.920;12.238;2022-12-05T14:53:13;14.52;;;8.93;;
21000;SDS011;10658;50.920;12.238;2022-12-05T14:57:16;14.75;;;8.93;;
21000;SDS011;10658;50.920;12.238;2022-12-05T15:05:32;17.48;;;10.13;;
21000;SDS011;10658;50.920;12.238;2022-12-05T15:09:53;16.95;;;9.80;;
21000;SDS011;10658;50.920;12.238;2022-12-05T15:22:28;18.50;;;10.35;;
21000;SDS011;10658;50.920;12.238;2022-12-05T15:26:38;19.83;;;9.70;;
21000;SDS011;10658;50.920;12.238;2022-12-05T15:30:54;17.10;;;8.90;;
21000;SDS011;10658;50.920;12.238;2022-12-05T15:34:59;15.15;;;10.15;;
21000;SDS011;10658;50.920;12.238;2022-12-05T15:39:13;14.02;;;9.18;;
21000;SDS011;10658;50.920;12.238;2022-12-05T15:43:35;11.90;;;9.68;;
21000;SDS011;10658;50.920;12.238;2022-12-05T15:47:36;17.55;;;10.93;;
21000;SDS011;10658;50.920;12.238;2022-12-05T15:51:38;42.55;;;19.40;;
21000;SDS011;10658;50.920;12.238;2022-12-05T15:55:44;53.67;;;25.95;;
21000;SDS011;10658;50.920;12.238;2022-12-05T15:59:54;32.65;;;15.38;;
21000;SDS011;10658;50.920;12.238;2022-12-05T16:04:35;32.30;;;16.80;;
21000;SDS011;10658;50.920;12.238;2022-12-05T16:08:49;31.35;;;18.60;;
21000;SDS011;10658;50.920;12.238;2022-12-05T16:12:51;41.42;;;23.23;;
21000;SDS011;10658;50.920;12.238;2022-12-05T16:16:54;33.28;;;19.35;;
21000;SDS011;10658;50.920;12.238;2022-12-05T16:21:02;35.15;;;19.65;;
21000;SDS011;10658;50.920;12.238;2022-12-05T16:25:24;48.05;;;25.20;;
21000;SDS011;10658;50.920;12.238;2022-12-05T16:29:33;33.28;;;17.00;;
21000;SDS011;10658;50.920;12.238;2022-12-05T16:33:34;31.50;;;18.98;;
21000;SDS011;10658;50.920;12.238;2022-12-05T16:37:35;21.95;;;15.43;;
21000;SDS011;10658;50.920;12.238;2022-12-05T16:41:37;21.05;;;14.35;;
21000;SDS011;10658;50.920;12.238;2022-12-05T16:45:40;18.63;;;12.30;;
21000;SDS011;10658;50.920;12.238;2022-12-05T16:49:42;13.23;;;10.35;;
21000;SDS011;10658;50.920;12.238;2022-12-05T16:53:50;13.10;;;8.38;;
21000;SDS011;10658;50.920;12.238;2022-12-05T16:57:53;17.08;;;9.00;;
21000;SDS011;10658;50.920;12.238;2022-12-05T17:01:54;13.57;;;8.13;;
21000;SDS011;10658;50.920;12.238;2022-12-05T17:05:55;13.27;;;8.57;;
21000;SDS011;10658;50.920;12.238;2022-12-05T17:09:56;25.33;;;12.48;;
21000;SDS011;10658;50.920;12.238;2022-12-05T17:13:57;25.13;;;15.35;;
21000;SDS011;10658;50.920;12.238;2022-12-05T17:17:59;14.35;;;9.75;;
21000;SDS011;10658;50.920;12.238;2022-12-05T17:22:00;14.60;;;8.35;;
21000;SDS011;10658;50.920;12.238;2022-12-05T17:26:01;12.63;;;6.15;;
21000;SDS011;10658;50.920;12.238;2022-12-05T17:30:02;13.25;;;6.97;;
21000;SDS011;10658;50.920;12.238;2022-12-05T17:34:05;12.85;;;7.07;;
21000;SDS011;10658;50.920;12.238;2022-12-05T17:38:15;11.70;;;6.88;;
21000;SDS011;10658;50.920;12.238;2022-12-05T17:42:16;24.42;;;10.70;;
21000;SDS011;10658;50.920;12.238;2022-12-05T17:46:18;19.13;;;9.27;;
21000;SDS011;10658;50.920;12.238;2022-12-05T17:50:20;23.25;;;11.73;;
21000;SDS011;10658;50.920;12.238;2022-12-05T17:54:23;14.05;;;7.75;;
21000;SDS011;10658;50.920;12.238;2022-12-05T17:58:25;9.23;;;6.10;;
21000;SDS011;10658;50.920;12.238;2022-12-05T18:02:26;7.30;;;5.40;;
21000;SDS011;10658;50.920;12.238;2022-12-05T18:06:27;10.07;;;5.82;;
21000;SDS011;10658;50.920;12.238;2022-12-05T18:10:29;11.60;;;6.93;;
21000;SDS011;10658;50.920;12.238;2022-12-05T18:14:31;12.40;;;6.68;;
21000;SDS011;10658;50.920;12.238;2022-12-05T18:18:35;7.53;;;5.43;;
21000;SDS011;10658;50.920;12.238;2022-12-05T18:22:36;21.65;;;12.32;;
21000;SDS011;10658;50.920;12.238;2022-12-05T18:26:37;18.52;;;8.60;;
21000;SDS011;10658;50.920;12.238;2022-12-05T18:30:38;8.85;;;5.97;;
21000;SDS011;10658;50.920;12.238;2022-12-05T18:34:40;12.10;;;7.05;;
21000;SDS011;10658;50.920;12.238;2022-12-05T18:38:41;11.27;;;5.45;;
21000;SDS011;10658;50.920;12.238;2022-12-05T18:42:48;9.00;;;5.75;;
21000;SDS011;10658;50.920;12.238;2022-12-05T18:46:49;8.93;;;5.28;;
21000;SDS011;10658;50.920;12.238;2022-12-05T18:50:50;10.07;;;5.90;;
21000;SDS011;10658;50.920;12.238;2022-12-05T18:54:52;8.45;;;5.13;;
21000;SDS011;10658;50.920;12.238;2022-12-05T18:58:54;8.27;;;4.95;;
21000;SDS011;10658;50.920;12.238;2022-12-05T19:03:01;9.07;;;5.50;;
21000;SDS011;10658;50.920;12.238;2022-12-05T19:07:02;13.20;;;6.90;;
21000;SDS011;10658;50.920;12.238;2022-12-05T19:11:03;14.18;;;7.65;;
21000;SDS011;10658;50.920;12.238;2022-12-05T19:15:05;7.68;;;5.47;;
21000;SDS011;10658;50.920;12.238;2022-12-05T19:19:07;8.65;;;6.10;;
21000;SDS011;10658;50.920;12.238;2022-12-05T19:23:11;7.95;;;5.38;;
21000;SDS011;10658;50.920;12.238;2022-12-05T19:27:13;10.45;;;5.30;;
21000;SDS011;10658;50.920;12.238;2022-12-05T19:31:15;11.75;;;6.50;;
21000;SDS011;10658;50.920;12.238;2022-12-05T19:35:21;8.93;;;5.30;;
21000;SDS011;10658;50.920;12.238;2022-12-05T19:39:22;9.60;;;4.63;;
21000;SDS011;10658;50.920;12.238;2022-12-05T19:43:30;7.35;;;4.85;;
21000;SDS011;10658;50.920;12.238;2022-12-05T19:47:34;10.90;;;5.57;;
21000;SDS011;10658;50.920;12.238;2022-12-05T19:51:35;9.30;;;5.47;;
21000;SDS011;10658;50.920;12.238;2022-12-05T19:55:37;10.63;;;5.43;;
21000;SDS011;10658;50.920;12.238;2022-12-05T19:59:38;9.68;;;4.97;;
21000;SDS011;10658;50.920;12.238;2022-12-05T20:03:39;8.90;;;5.13;;
21000;SDS011;10658;50.920;12.238;2022-12-05T20:07:43;8.13;;;4.55;;
21000;SDS011;10658;50.920;12.238;2022-12-05T20:11:45;9.13;;;4.95;;
21000;SDS011;10658;50.920;12.238;2022-12-05T20:15:47;9.07;;;5.30;;
21000;SDS011;10658;50.920;12.238;2022-12-05T20:19:48;7.10;;;5.03;;
21000;SDS011;10658;50.920;12.238;2022-12-05T20:23:50;8.02;;;4.93;;
21000;SDS011;10658;50.920;12.238;2022-12-05T20:27:53;8.40;;;5.03;;
21000;SDS011;10658;50.920;12.238;2022-12-05T20:31:54;11.27;;;6.20;;
21000;SDS011;10658;50.920;12.238;2022-12-05T20:36:01;7.70;;;4.82;;
21000;SDS011;10658;50.920;12.238;2022-12-05T20:40:04;6.43;;;4.00;;
21000;SDS011;10658;50.920;12.238;2022-12-05T20:44:09;7.03;;;4.38;;
21000;SDS011;10658;50.920;12.238;2022-12-05T20:48:11;6.82;;;4.13;;
21000;SDS011;10658;50.920;12.238;2022-12-05T20:52:12;6.63;;;3.65;;
21000;SDS011;10658;50.920;12.238;2022-12-05T20:56:14;9.48;;;5.93;;
21000;SDS011;10658;50.920;12.238;2022-12-05T21:00:20;7.03;;;5.20;;
21000;SDS011;10658;50.920;12.238;2022-12-05T21:04:21;12.55;;;7.47;;
21000;SDS011;10658;50.920;12.238;2022-12-05T21:08:22;7.13;;;4.13;;
21000;SDS011;10658;50.920;12.238;2022-12-05T21:12:25;9.07;;;5.93;;
21000;SDS011;10658;50.920;12.238;2022-12-05T21:16:26;6.65;;;5.05;;
21000;SDS011;10658;50.920;12.238;2022-12-05T21:20:27;7.60;;;3.92;;
21000;SDS011;10658;50.920;12.238;2022-12-05T21:24:28;7.95;;;4.53;;
21000;SDS011;10658;50.920;12.238;2022-12-05T21:28:29;6.28;;;4.32;;
21000;SDS011;10658;50.920;12.238;2022-12-05T21:32:32;7.78;;;3.85;;
21000;SDS011;10658;50.920;12.238;2022-12-05T21:36:35;6.22;;;4.47;;
21000;SDS011;10658;50.920;12.238;2022-12-05T21:40:36;4.68;;;3.85;;
21000;SDS011;10658;50.920;12.238;2022-12-05T21:44:37;6.60;;;4.50;;
21000;SDS011;10658;50.920;12.238;2022-12-05T21:48:39;9.27;;;4.63;;
21000;SDS011;10658;50.920;12.238;2022-12-05T21:52:41;6.85;;;4.32;;
21000;SDS011;10658;50.920;12.238;2022-12-05T21:56:42;6.53;;;4.22;;
21000;SDS011;10658;50.920;12.238;2022-12-05T22:00:44;7.88;;;4.45;;
21000;SDS011;10658;50.920;12.238;2022-12-05T22:04:46;6.68;;;3.90;;
21000;SDS011;10658;50.920;12.238;2022-12-05T22:08:47;6.45;;;4.15;;
21000;SDS011;10658;50.920;12.238;2022-12-05T22:12:49;6.50;;;3.38;;
21000;SDS011;10658;50.920;12.238;2022-12-05T22:16:50;7.47;;;5.15;;
21000;SDS011;10658;50.920;12.238;2022-12-05T22:20:55;5.88;;;3.72;;
21000;SDS011;10658;50.920;12.238;2022-12-05T22:24:57;4.82;;;3.25;;
21000;SDS011;10658;50.920;12.238;2022-12-05T22:28:58;5.43;;;3.63;;
21000;SDS011;10658;50.920;12.238;2022-12-05T22:32:59;6.25;;;3.75;;
21000;SDS011;10658;50.920;12.238;2022-12-05T22:37:00;6.38;;;3.80;;
21000;SDS011;10658;50.920;12.238;2022-12-05T22:41:02;8.15;;;4.90;;
21000;SDS011;10658;50.920;12.238;2022-12-05T22:45:08;5.43;;;4.03;;
21000;SDS011;10658;50.920;12.238;2022-12-05T22:49:09;6.07;;;4.28;;
21000;SDS011;10658;50.920;12.238;2022-12-05T22:53:12;6.60;;;3.08;;
21000;SDS011;10658;50.920;12.238;2022-12-05T22:57:15;6.57;;;3.28;;
21000;SDS011;10658;50.920;12.238;2022-12-05T23:01:18;5.03;;;3.30;;
21000;SDS011;10658;50.920;12.238;2022-12-05T23:05:24;4.78;;;2.60;;
21000;SDS011;10658;50.920;12.238;2022-12-05T23:09:25;4.95;;;3.08;;
21000;SDS011;10658;50.920;12.238;2022-12-05T23:13:27;5.18;;;2.92;;
21000;SDS011;10658;50.920;12.238;2022-12-05T23:17:30;2.97;;;2.30;;
21000;SDS011;10658;50.920;12.238;2022-12-05T23:21:36;6.13;;;3.00;;
21000;SDS011;10658;50.920;12.238;2022-12-05T23:25:38;3.95;;;2.60;;
21000;SDS011;10658;50.920;12.238;2022-12-05T23:29:38;5.22;;;3.00;;
21000;SDS011;10658;50.920;12.238;2022-12-05T23:33:39;4.07;;;2.80;;
21000;SDS011;10658;50.920;12.238;2022-12-05T23:37:40;3.90;;;2.40;;
21000;SDS011;10658;50.920;12.238;2022-12-05T23:41:42;2.95;;;2.22;;
21000;SDS011;10658;50.920;12.238;2022-12-05T23:45:43;3.90;;;1.90;;
21000;SDS011;10658;50.920;12.238;2022-12-05T23:49:45;7.82;;;2.10;;
21000;SDS011;10658;50.920;12.238;2022-12-05T23:53:46;2.33;;;2.00;;
21000;SDS011;10658;50.920;12.238;2022-12-05T23:57:52;2.63;;;1.90;;
